Time;durP1;ratioP1;P1;durP2;ratioP2;P2;SDS_P1;SDS_P2;PMS_P1;PMS_P2;Temp;Humidity;BMP_temperature;BMP_pressure;BME280_temperature;BME280_humidity;BME280_pressure;Samples;Min_cycle;Max_cycle;Signal;HPM_P1;HPM_P2
2023/02/02 00:00:44;;;;;;;;;2.50;2.00;;;;;10.91;58.96;102526.47;5079116;28;45312;-66
2023/02/02 00:03:09;;;;;;;;;4.25;3.25;;;;;10.89;59.18;102514.94;5076031;28;45504;-66
2023/02/02 00:05:35;;;;;;;;;5.50;5.00;;;;;10.91;59.32;102525.59;5060161;28;45354;-66
2023/02/02 00:08:01;;;;;;;;;5.00;3.25;;;;;10.89;59.39;102509.59;5062670;28;45409;-66
2023/02/02 00:10:26;;;;;;;;;2.75;2.75;;;;;10.85;59.45;102496.25;5059957;28;45295;-66
2023/02/02 00:12:52;;;;;;;;;4.00;2.00;;;;;10.89;59.62;102519.34;5067021;28;45374;-66
2023/02/02 00:15:18;;;;;;;;;4.00;2.00;;;;;10.87;59.27;102519.38;5080108;28;45322;-66
2023/02/02 00:17:43;;;;;;;;;4.00;2.75;;;;;10.86;59.27;102525.63;5072594;27;46194;-66
2023/02/02 00:20:09;;;;;;;;;1.00;0.50;;;;;10.84;59.40;102523.84;5066695;28;49838;-66
2023/02/02 00:22:34;;;;;;;;;7.50;3.50;;;;;10.77;59.27;102516.75;5062154;28;45378;-66
2023/02/02 00:25:00;;;;;;;;;5.00;3.75;;;;;10.82;59.22;102528.31;5068704;28;45555;-66
2023/02/02 00:27:25;;;;;;;;;4.00;2.25;;;;;10.83;59.14;102525.63;5065454;28;46186;-66
2023/02/02 00:29:52;;;;;;;;;4.50;2.00;;;;;10.83;59.65;102522.97;5059590;28;45405;-66
2023/02/02 00:32:18;;;;;;;;;5.50;4.00;;;;;10.80;59.70;102514.97;5059578;28;45386;-66
2023/02/02 00:34:43;;;;;;;;;5.00;3.50;;;;;10.74;59.63;102518.56;5059563;28;45328;-66
2023/02/02 00:37:09;;;;;;;;;4.00;4.00;;;;;10.72;59.70;102523.00;5076687;27;45422;-66
2023/02/02 00:39:34;;;;;;;;;1.00;1.00;;;;;10.69;59.93;102520.38;5078069;28;45333;-66
2023/02/02 00:41:59;;;;;;;;;8.00;2.50;;;;;10.68;59.42;102520.38;5063638;28;45344;-66
2023/02/02 00:47:08;;;;;;;;;2.50;2.50;;;;;10.55;60.09;102509.72;5074046;28;45653;-66
2023/02/02 00:49:34;;;;;;;;;8.00;3.00;;;;;10.57;59.65;102515.97;5068591;28;45380;-66
2023/02/02 00:51:59;;;;;;;;;2.25;2.25;;;;;10.54;59.54;102521.31;5059203;28;45471;-66
2023/02/02 00:54:25;;;;;;;;;3.75;1.75;;;;;10.59;59.90;102518.59;5062103;27;45550;-66
2023/02/02 00:56:50;;;;;;;;;2.50;2.50;;;;;10.60;59.78;102523.06;5072135;28;45557;-66
2023/02/02 00:59:15;;;;;;;;;2.00;2.00;;;;;10.59;60.02;102526.63;5061995;28;45686;-66
2023/02/02 01:01:41;;;;;;;;;5.00;3.00;;;;;10.56;59.85;102524.84;5058452;28;45299;-66
2023/02/02 01:04:06;;;;;;;;;6.50;3.00;;;;;10.53;59.95;102521.31;5059249;28;45274;-66
2023/02/02 01:06:31;;;;;;;;;2.25;2.00;;;;;10.53;59.91;102524.88;5058634;28;45238;-66
2023/02/02 01:08:57;;;;;;;;;5.25;2.75;;;;;10.48;60.40;102507.09;5062808;28;55741;-66
2023/02/02 01:11:24;;;;;;;;;6.75;3.00;;;;;10.48;60.33;102499.97;5073596;28;45960;-66
2023/02/02 01:13:50;;;;;;;;;4.75;3.00;;;;;10.51;60.39;102510.63;5069265;28;45248;-66
2023/02/02 01:16:16;;;;;;;;;6.50;3.75;;;;;10.32;60.30;102467.13;5075271;27;46300;-66
2023/02/02 01:18:41;;;;;;;;;4.50;2.75;;;;;10.49;60.15;102495.50;5074370;28;45447;-66
2023/02/02 01:21:09;;;;;;;;;4.25;3.00;;;;;10.50;60.09;102500.84;5076655;28;45503;-66
2023/02/02 01:23:36;;;;;;;;;4.00;2.50;;;;;10.48;60.50;102501.75;5073968;27;45389;-66
2023/02/02 01:26:04;;;;;;;;;3.00;2.00;;;;;10.44;60.02;102502.66;5060360;28;45272;-66
2023/02/02 01:28:30;;;;;;;;;5.00;4.00;;;;;10.37;60.65;102496.44;5065771;28;46037;-66
2023/02/02 01:30:56;;;;;;;;;2.00;2.00;;;;;10.36;59.98;102495.56;5060602;28;45330;-66
2023/02/02 01:33:22;;;;;;;;;6.25;4.00;;;;;10.32;60.33;102498.25;5076095;28;45484;-66
2023/02/02 01:35:51;;;;;;;;;3.00;3.00;;;;;10.31;60.60;102497.31;5072615;28;45385;-66
2023/02/02 01:38:18;;;;;;;;;5.00;3.00;;;;;10.26;60.48;102496.47;5073123;27;45557;-66
2023/02/02 01:40:52;;;;;;;;;6.25;3.75;;;;;10.25;60.39;102510.69;5062221;28;45343;-66
2023/02/02 01:43:23;;;;;;;;;6.00;3.50;;;;;10.26;60.67;102515.13;5074063;28;45396;-66
2023/02/02 01:45:50;;;;;;;;;2.00;2.00;;;;;10.23;60.95;102506.25;5068713;28;46743;-66
2023/02/02 01:48:17;;;;;;;;;4.25;1.50;;;;;10.27;60.73;102516.03;5077145;27;45388;-66
2023/02/02 01:50:42;;;;;;;;;3.75;2.25;;;;;10.26;60.51;102517.81;5064244;27;45355;-66
2023/02/02 01:53:08;;;;;;;;;5.00;4.00;;;;;10.26;60.95;102514.25;5063357;28;45268;-66
2023/02/02 01:55:37;;;;;;;;;2.00;2.00;;;;;10.29;60.42;102520.47;5073618;27;45531;-66
2023/02/02 01:58:05;;;;;;;;;7.00;2.50;;;;;10.30;60.92;102511.56;5066910;28;45448;-66
2023/02/02 02:00:31;;;;;;;;;3.75;1.50;;;;;10.22;60.77;102497.34;5062184;28;45408;-66
2023/02/02 02:03:01;;;;;;;;;2.50;2.00;;;;;10.32;60.49;102511.59;5061621;28;45400;-66
2023/02/02 02:05:31;;;;;;;;;4.00;2.00;;;;;10.29;60.90;102515.13;5061648;28;45415;-66
2023/02/02 02:08:07;;;;;;;;;5.00;2.50;;;;;10.27;61.12;102516.91;5062870;28;45683;-66
2023/02/02 02:10:33;;;;;;;;;3.00;2.00;;;;;10.24;60.80;102527.59;5062022;28;45452;-66
2023/02/02 02:12:59;;;;;;;;;3.75;2.75;;;;;10.20;61.00;102529.38;5067902;28;45444;-66
2023/02/02 02:18:26;;;;;;;;;4.00;2.00;;;;;10.16;61.09;102524.06;5071536;28;45555;-66
2023/02/02 02:27:07;;;;;;;;;3.00;2.00;;;;;10.22;61.12;102531.16;5071888;28;45504;-66
2023/02/02 02:30:05;;;;;;;;;4.00;3.00;;;;;10.17;61.28;102526.72;5068044;28;45658;-66
2023/02/02 02:32:43;;;;;;;;;2.50;2.50;;;;;10.19;60.70;102524.06;5061516;28;45516;-66
2023/02/02 02:35:19;;;;;;;;;3.00;2.00;;;;;10.12;60.83;102523.19;5063500;28;45309;-66
2023/02/02 02:37:56;;;;;;;;;3.25;2.75;;;;;10.09;61.11;102528.53;5067098;28;46303;-66
2023/02/02 02:40:34;;;;;;;;;5.00;2.00;;;;;10.11;61.21;102531.19;5065720;28;45399;-66
2023/02/02 02:43:06;;;;;;;;;4.00;2.00;;;;;10.13;61.42;102537.41;5070691;28;45573;-66
2023/02/02 02:45:32;;;;;;;;;3.75;2.75;;;;;10.11;61.23;102534.75;5074527;28;45521;-66
2023/02/02 02:47:58;;;;;;;;;4.75;2.00;;;;;10.10;61.38;102542.75;5069662;28;45657;-66
2023/02/02 02:50:23;;;;;;;;;6.75;2.25;;;;;10.07;61.19;102535.63;5074863;28;45564;-66
2023/02/02 02:52:59;;;;;;;;;3.75;2.50;;;;;10.04;61.24;102530.31;5078156;28;45706;-66
2023/02/02 02:55:32;;;;;;;;;6.25;2.75;;;;;10.07;60.64;102540.97;5060565;28;45940;-66
2023/02/02 02:58:04;;;;;;;;;3.75;2.00;;;;;10.08;61.02;102536.53;5078564;28;46137;-66
2023/02/02 03:00:54;;;;;;;;;2.00;2.00;;;;;10.08;61.41;102531.19;5061183;28;45698;-66
2023/02/02 03:03:36;;;;;;;;;5.00;2.00;;;;;10.09;61.39;102538.28;5064190;28;45397;-66
2023/02/02 03:06:27;;;;;;;;;2.00;2.00;;;;;10.08;61.24;102529.41;5060962;28;45421;-66
2023/02/02 03:09:00;;;;;;;;;3.50;2.00;;;;;10.05;60.92;102533.88;5060728;28;45316;-66
2023/02/02 03:11:26;;;;;;;;;4.00;2.00;;;;;10.01;61.31;102528.53;5073914;28;45264;-66
2023/02/02 03:13:51;;;;;;;;;2.00;2.00;;;;;9.96;61.21;102522.31;5071656;28;45567;-66
2023/02/02 03:16:17;;;;;;;;;1.75;1.75;;;;;9.99;61.22;102526.78;5076230;28;45420;-66
2023/02/02 03:18:42;;;;;;;;;3.00;2.25;;;;;9.94;61.11;102525.84;5077391;27;45485;-66
2023/02/02 03:21:07;;;;;;;;;1.00;1.00;;;;;9.90;61.01;102522.31;5080367;27;45224;-66
2023/02/02 03:23:33;;;;;;;;;3.00;2.00;;;;;9.95;61.19;102535.66;5070365;28;45794;-66
2023/02/02 03:25:59;;;;;;;;;2.75;2.75;;;;;9.95;61.46;102519.66;5060626;28;45346;-66
2023/02/02 03:28:25;;;;;;;;;1.75;1.75;;;;;9.96;61.07;102522.31;5063360;28;45867;-66
2023/02/02 03:30:52;;;;;;;;;3.00;2.00;;;;;9.94;61.64;102524.09;5077116;28;45385;-66
2023/02/02 03:33:17;;;;;;;;;5.00;2.00;;;;;9.93;61.12;102534.78;5071098;27;45548;-66
2023/02/02 03:35:43;;;;;;;;;6.75;2.00;;;;;9.87;61.46;102524.97;5068742;28;45526;-66
2023/02/02 03:38:09;;;;;;;;;6.25;2.00;;;;;9.89;61.34;102536.56;5073289;27;47171;-66
2023/02/02 03:40:34;;;;;;;;;3.00;2.50;;;;;9.85;61.16;102536.56;5076649;27;45386;-65
2023/02/02 03:43:00;;;;;;;;;3.00;1.75;;;;;9.84;61.32;102530.34;5070224;28;45432;-66
2023/02/02 03:45:29;;;;;;;;;1.00;1.00;;;;;9.85;61.56;102541.88;5075415;28;45613;-66
2023/02/02 03:47:55;;;;;;;;;3.25;2.00;;;;;9.80;61.63;102536.53;5060924;28;45686;-66
2023/02/02 03:50:20;;;;;;;;;1.50;1.50;;;;;9.85;61.84;102547.22;5064817;27;45397;-66
2023/02/02 03:52:45;;;;;;;;;0.75;0.75;;;;;9.87;61.61;102553.44;5060032;28;45390;-66
2023/02/02 03:55:11;;;;;;;;;3.00;1.00;;;;;9.81;61.35;102541.88;5067984;28;51407;-66
2023/02/02 03:57:36;;;;;;;;;3.25;1.50;;;;;9.78;61.43;102544.56;5068834;27;45464;-66
2023/02/02 04:00:03;;;;;;;;;2.75;2.00;;;;;9.83;61.96;102557.88;5070881;28;45956;-66
2023/02/02 04:02:28;;;;;;;;;4.00;2.50;;;;;9.81;62.06;102547.22;5077533;28;45342;-66
2023/02/02 04:04:54;;;;;;;;;2.00;2.00;;;;;9.85;62.03;102547.22;5059754;28;45482;-66
2023/02/02 04:07:19;;;;;;;;;2.00;1.00;;;;;9.82;61.35;102548.09;5059650;28;45424;-66
2023/02/02 04:09:44;;;;;;;;;2.00;2.00;;;;;9.83;61.29;102552.56;5075861;28;45410;-66
2023/02/02 04:12:09;;;;;;;;;4.00;2.25;;;;;9.82;62.05;102550.75;5067447;28;45447;-66
2023/02/02 04:14:35;;;;;;;;;3.00;1.00;;;;;9.88;61.52;102556.09;5075488;28;45667;-66
2023/02/02 04:17:00;;;;;;;;;2.00;2.00;;;;;9.82;61.65;102546.34;5069475;27;48177;-66
2023/02/02 04:19:25;;;;;;;;;2.75;2.75;;;;;9.85;61.61;102553.44;5065172;28;45367;-66
2023/02/02 04:21:52;;;;;;;;;3.00;1.50;;;;;9.90;62.11;102558.78;5075757;28;45432;-66
2023/02/02 04:24:17;;;;;;;;;2.50;2.00;;;;;9.87;61.73;102559.66;5066626;27;45568;-66
2023/02/02 04:26:42;;;;;;;;;2.00;1.00;;;;;9.83;61.83;102564.09;5069489;28;45377;-66
2023/02/02 04:29:08;;;;;;;;;4.25;1.25;;;;;9.83;61.82;102552.56;5065426;28;47839;-66
2023/02/02 04:31:33;;;;;;;;;4.00;3.00;;;;;9.84;62.46;102557.00;5059734;28;45302;-67
2023/02/02 04:33:59;;;;;;;;;3.25;2.00;;;;;9.85;62.41;102555.22;5071630;28;45421;-66
2023/02/02 04:36:24;;;;;;;;;4.00;2.00;;;;;9.88;62.15;102561.44;5073369;28;45466;-66
2023/02/02 04:38:54;;;;;;;;;2.50;1.50;;;;;9.88;62.34;102555.22;5070095;27;45417;-67
2023/02/02 04:41:20;;;;;;;;;2.25;2.25;;;;;9.88;61.83;102553.44;5068291;28;45454;-66
2023/02/02 04:43:46;;;;;;;;;2.00;2.00;;;;;9.90;61.81;102556.09;5074919;28;45446;-66
2023/02/02 04:46:12;;;;;;;;;6.50;2.00;;;;;9.93;62.20;102557.00;5079671;28;46620;-66
2023/02/02 04:48:37;;;;;;;;;2.50;1.50;;;;;9.92;62.35;102557.91;5066153;27;45342;-66
2023/02/02 04:51:05;;;;;;;;;4.00;2.00;;;;;9.93;61.94;102567.66;5059632;28;45373;-66
2023/02/02 04:53:31;;;;;;;;;1.25;1.00;;;;;9.95;62.00;102562.31;5074292;28;45883;-66
2023/02/02 04:55:57;;;;;;;;;2.00;2.00;;;;;9.91;62.22;102555.22;5066424;28;45426;-66
2023/02/02 04:58:23;;;;;;;;;1.25;1.25;;;;;9.91;62.12;102558.78;5061232;28;45495;-66
2023/02/02 05:00:49;;;;;;;;;1.25;1.25;;;;;9.92;62.05;102557.91;5079691;28;45444;-66
2023/02/02 05:03:14;;;;;;;;;2.25;2.25;;;;;9.99;62.18;102569.47;5060874;27;45489;-66
2023/02/02 05:05:40;;;;;;;;;1.00;1.00;;;;;9.90;61.89;102556.97;5057761;28;48374;-66
2023/02/02 05:08:07;;;;;;;;;1.75;1.75;;;;;9.96;61.91;102569.47;5072000;28;45564;-66
2023/02/02 05:10:32;;;;;;;;;2.00;2.00;;;;;9.95;61.64;102559.66;5071378;28;45271;-66
2023/02/02 05:12:57;;;;;;;;;3.75;2.25;;;;;10.04;62.11;102574.75;5063260;27;45322;-66
2023/02/02 05:15:23;;;;;;;;;2.00;2.00;;;;;10.04;62.06;102572.09;5079249;28;47386;-66
2023/02/02 05:17:48;;;;;;;;;2.25;1.50;;;;;9.97;62.27;102560.53;5069836;27;45323;-66
2023/02/02 05:20:14;;;;;;;;;2.25;1.25;;;;;10.09;61.44;102583.66;5071270;28;46642;-66
2023/02/02 05:22:40;;;;;;;;;1.50;1.50;;;;;10.06;62.26;102575.69;5076038;27;45518;-66
2023/02/02 05:25:07;;;;;;;;;1.00;1.00;;;;;10.07;61.50;102572.97;5078329;27;45612;-66
2023/02/02 05:27:33;;;;;;;;;3.75;3.00;;;;;10.13;61.96;102582.78;5061927;28;45326;-66
2023/02/02 05:29:58;;;;;;;;;2.00;2.00;;;;;10.12;61.97;102584.56;5059011;28;45382;-66
2023/02/02 05:32:24;;;;;;;;;1.75;1.75;;;;;10.14;61.88;102582.78;5073104;28;45482;-66
2023/02/02 05:34:49;;;;;;;;;1.75;1.25;;;;;10.14;61.67;102585.44;5077124;28;45416;-66
2023/02/02 05:37:15;;;;;;;;;2.25;1.00;;;;;10.14;61.60;102580.09;5075690;27;45421;-66
2023/02/02 05:39:40;;;;;;;;;1.25;1.00;;;;;10.11;62.04;102572.09;5058936;28;45577;-66
2023/02/02 05:42:05;;;;;;;;;2.00;2.00;;;;;10.13;62.06;102578.31;5059968;28;58390;-66
2023/02/02 05:44:30;;;;;;;;;2.00;1.00;;;;;10.07;61.66;102572.97;5078161;28;49343;-66
2023/02/02 05:46:56;;;;;;;;;2.50;1.00;;;;;10.03;61.88;102571.22;5061781;27;45252;-66
2023/02/02 05:49:21;;;;;;;;;4.00;2.00;;;;;10.05;62.28;102585.44;5059967;28;45245;-66
2023/02/02 05:51:50;;;;;;;;;3.25;1.00;;;;;10.09;61.99;102589.91;5071822;28;45476;-66
2023/02/02 05:54:19;;;;;;;;;2.75;1.00;;;;;10.09;62.51;102589.91;5072435;28;45794;-66
2023/02/02 05:56:46;;;;;;;;;3.75;3.25;;;;;10.06;62.35;102579.22;5071993;28;45435;-66
2023/02/02 05:59:11;;;;;;;;;1.00;1.00;;;;;10.05;62.43;102573.88;5058609;28;45309;-66
2023/02/02 06:01:36;;;;;;;;;2.00;1.75;;;;;10.15;62.01;102591.66;5058162;28;45248;-66
2023/02/02 06:04:02;;;;;;;;;5.00;1.50;;;;;10.16;62.60;102588.13;5063579;28;46108;-66
2023/02/02 06:06:27;;;;;;;;;2.25;0.00;;;;;10.16;62.21;102586.31;5073701;28;45341;-66
2023/02/02 06:08:52;;;;;;;;;3.00;2.00;;;;;10.12;62.09;102578.31;5058301;28;45539;-66
2023/02/02 06:11:18;;;;;;;;;2.00;1.50;;;;;10.18;62.50;102597.00;5071963;28;45330;-66
2023/02/02 06:13:43;;;;;;;;;4.00;2.50;;;;;10.22;62.31;102608.56;5066814;28;46116;-66
2023/02/02 06:16:09;;;;;;;;;3.50;2.75;;;;;10.16;62.63;102593.44;5062038;28;45625;-66
2023/02/02 06:18:35;;;;;;;;;1.00;1.00;;;;;10.20;62.17;102605.88;5068700;28;45416;-66
2023/02/02 06:21:03;;;;;;;;;2.75;2.00;;;;;10.23;62.84;102607.69;5074508;27;45620;-66
2023/02/02 06:23:29;;;;;;;;;3.00;2.00;;;;;10.20;62.38;102605.88;5079536;27;46026;-66
2023/02/02 06:25:54;;;;;;;;;4.50;2.00;;;;;10.14;62.46;102597.88;5081573;28;45473;-66
2023/02/02 06:28:20;;;;;;;;;3.00;1.00;;;;;10.19;62.28;102605.00;5077269;27;45511;-66
2023/02/02 06:30:45;;;;;;;;;3.50;2.00;;;;;10.13;62.57;102598.78;5068527;28;45588;-66
2023/02/02 06:33:10;;;;;;;;;3.00;1.00;;;;;10.20;62.39;102620.09;5077089;28;45445;-66
2023/02/02 06:35:36;;;;;;;;;2.50;2.00;;;;;10.21;62.72;102623.69;5076490;28;45602;-66
2023/02/02 06:38:01;;;;;;;;;6.25;4.50;;;;;10.15;62.16;102613.00;5079154;27;45397;-66
2023/02/02 06:40:27;;;;;;;;;5.00;5.00;;;;;10.11;62.82;102614.78;5071864;27;45470;-66
2023/02/02 06:42:59;;;;;;;;;8.00;6.00;;;;;10.12;62.61;102629.94;5070644;28;46512;-66
2023/02/02 06:45:25;;;;;;;;;3.50;3.50;;;;;9.99;62.83;102606.81;5061132;28;45601;-74
2023/02/02 06:47:51;;;;;;;;;8.75;5.00;;;;;10.06;62.53;102613.03;5074465;28;45411;-70
2023/02/02 06:50:16;;;;;;;;;4.00;3.00;;;;;10.12;62.20;102618.34;5071361;27;45322;-76
2023/02/02 06:52:49;;;;;;;;;4.00;4.00;;;;;10.12;62.31;102623.69;5077938;27;47041;-76
2023/02/02 06:55:16;;;;;;;;;10.75;4.50;;;;;10.07;62.37;102617.47;5075700;27;45751;-76
2023/02/02 06:57:41;;;;;;;;;3.00;3.00;;;;;10.04;62.21;102613.03;5078889;27;45442;-76
2023/02/02 07:00:07;;;;;;;;;3.00;3.00;;;;;10.12;62.39;102627.25;5076647;28;45338;-74
2023/02/02 07:02:32;;;;;;;;;5.00;4.50;;;;;10.06;62.53;102621.03;5071973;28;45303;-77
2023/02/02 07:04:58;;;;;;;;;4.00;4.00;;;;;10.05;62.64;102620.13;5072595;28;45296;-77
2023/02/02 07:07:23;;;;;;;;;4.75;4.00;;;;;10.11;62.60;102621.91;5062573;28;45415;-76
2023/02/02 07:09:48;;;;;;;;;4.50;4.00;;;;;10.04;62.63;102625.47;5066142;28;45571;-76
2023/02/02 07:12:14;;;;;;;;;2.50;2.50;;;;;10.04;62.57;102629.03;5066106;28;48591;-77
2023/02/02 07:14:39;;;;;;;;;3.75;3.00;;;;;10.03;62.75;102632.59;5075952;28;46331;-77
2023/02/02 07:17:04;;;;;;;;;4.00;4.00;;;;;9.86;62.82;102611.25;5065699;27;45407;-77
2023/02/02 07:19:30;;;;;;;;;9.50;4.00;;;;;9.92;63.03;102618.34;5070739;28;45318;-77
2023/02/02 07:21:55;;;;;;;;;7.00;3.75;;;;;9.91;62.51;102620.13;5074274;28;47139;-76
2023/02/02 07:24:20;;;;;;;;;8.50;5.50;;;;;9.91;62.97;102622.81;5066349;28;50795;-76
2023/02/02 07:26:46;;;;;;;;;5.50;5.25;;;;;9.95;62.71;102634.34;5068907;28;45545;-77
2023/02/02 07:29:12;;;;;;;;;7.75;7.50;;;;;9.92;62.61;102640.59;5065265;27;45585;-73
2023/02/02 07:31:38;;;;;;;;;6.00;4.75;;;;;9.87;63.15;102642.34;5072304;28;45705;-73
2023/02/02 07:34:05;;;;;;;;;6.75;5.50;;;;;9.85;63.26;102644.13;5065414;28;45507;-73
2023/02/02 07:36:30;;;;;;;;;3.00;3.00;;;;;9.82;62.98;102644.13;5075168;28;45398;-73
2023/02/02 07:39:01;;;;;;;;;8.50;5.00;;;;;9.81;63.22;102645.03;5069379;27;45379;-73
2023/02/02 07:41:26;;;;;;;;;6.00;4.00;;;;;9.82;63.14;102647.69;5072568;28;45576;-73
2023/02/02 07:43:52;;;;;;;;;5.00;4.00;;;;;9.80;63.18;102637.91;5070551;28;45447;-73
2023/02/02 07:46:18;;;;;;;;;8.75;4.00;;;;;9.78;63.62;102642.34;5063036;27;53263;-73
2023/02/02 07:48:44;;;;;;;;;4.25;2.25;;;;;9.81;63.66;102645.91;5065199;28;45697;-73
2023/02/02 07:51:13;;;;;;;;;4.00;2.25;;;;;9.82;63.27;102645.03;5072558;28;46175;-72
2023/02/02 07:53:42;;;;;;;;;4.25;4.00;;;;;9.81;63.37;102645.91;5073896;27;45544;-72
2023/02/02 07:56:08;;;;;;;;;4.50;4.50;;;;;9.82;63.30;102647.69;5067731;28;45522;-72
2023/02/02 07:58:34;;;;;;;;;4.00;2.75;;;;;9.87;63.65;102645.00;5061255;28;45509;-72
2023/02/02 08:01:01;;;;;;;;;4.75;3.00;;;;;9.91;63.88;102645.94;5059449;28;46248;-72
2023/02/02 08:03:26;;;;;;;;;4.00;4.00;;;;;9.89;63.26;102645.94;5062376;28;45819;-69
2023/02/02 08:05:51;;;;;;;;;2.00;2.00;;;;;9.90;63.80;102644.13;5060128;28;58655;-70
2023/02/02 08:08:17;;;;;;;;;5.25;3.75;;;;;9.96;63.38;102652.16;5075237;28;47234;-67
2023/02/02 08:10:49;;;;;;;;;6.00;3.75;;;;;9.96;63.81;102649.50;5068077;28;60293;-69
2023/02/02 08:13:14;;;;;;;;;3.75;3.00;;;;;9.99;63.40;102647.72;5067113;28;45756;-69
2023/02/02 08:15:40;;;;;;;;;3.50;3.00;;;;;9.99;63.37;102660.16;5068158;27;46175;-69
2023/02/02 08:18:05;;;;;;;;;4.75;4.75;;;;;10.02;63.42;102657.47;5065211;28;45613;-68
2023/02/02 08:20:30;;;;;;;;;4.00;3.25;;;;;10.01;63.66;102659.25;5064444;27;53022;-69
2023/02/02 08:22:55;;;;;;;;;5.50;4.00;;;;;10.06;63.28;102655.72;5066707;28;48054;-68
2023/02/02 08:25:21;;;;;;;;;8.00;7.00;;;;;10.10;63.21;102669.03;5073045;27;45451;-69
2023/02/02 08:27:46;;;;;;;;;5.00;3.25;;;;;10.10;63.08;102654.81;5067954;27;45954;-68
2023/02/02 08:30:13;;;;;;;;;2.75;1.50;;;;;10.13;63.12;102657.50;5062579;27;46342;-68
2023/02/02 08:32:39;;;;;;;;;2.75;2.75;;;;;10.15;63.19;102671.72;5063672;27;45758;-69
2023/02/02 08:35:04;;;;;;;;;4.00;2.00;;;;;10.20;63.37;102678.81;5066246;27;45673;-69
2023/02/02 08:37:30;;;;;;;;;2.75;2.00;;;;;10.23;63.46;102677.94;5064554;27;45494;-69
2023/02/02 08:39:55;;;;;;;;;3.25;2.50;;;;;10.25;63.16;102677.94;5059040;27;54012;-69
2023/02/02 08:42:20;;;;;;;;;6.50;3.00;;;;;10.27;63.25;102685.06;5070438;27;49301;-69
2023/02/02 08:44:46;;;;;;;;;4.25;4.25;;;;;10.24;63.11;102676.16;5073792;27;45705;-69
2023/02/02 08:47:11;;;;;;;;;4.25;4.00;;;;;10.28;63.25;102685.97;5074545;27;45741;-68
2023/02/02 08:49:36;;;;;;;;;7.75;5.00;;;;;10.30;63.23;102692.19;5067490;27;51892;-69
2023/02/02 08:52:02;;;;;;;;;5.75;2.00;;;;;10.29;63.42;102680.63;5068377;27;45350;-69
2023/02/02 08:54:27;;;;;;;;;7.00;3.00;;;;;10.29;63.25;102685.97;5071612;27;45886;-69
2023/02/02 08:56:53;;;;;;;;;2.50;2.25;;;;;10.25;62.75;102685.97;5069493;27;46171;-69
2023/02/02 08:59:18;;;;;;;;;2.75;2.00;;;;;10.34;62.82;102685.97;5065895;27;46024;-68
2023/02/02 09:01:43;;;;;;;;;1.50;1.50;;;;;10.36;62.80;102692.22;5069275;27;45870;-69
2023/02/02 09:04:14;;;;;;;;;2.25;2.25;;;;;10.39;62.74;102697.56;5069541;27;45456;-69
2023/02/02 09:06:40;;;;;;;;;8.75;8.75;;;;;10.40;62.84;102701.13;5066095;27;45497;-69
2023/02/02 09:09:08;;;;;;;;;2.75;2.50;;;;;10.41;63.13;102702.88;5066985;27;45674;-69
2023/02/02 09:11:34;;;;;;;;;6.25;4.00;;;;;10.37;62.92;102697.56;5063805;27;45725;-69
2023/02/02 09:14:01;;;;;;;;;3.75;2.75;;;;;10.42;63.06;102702.88;5070387;27;45578;-69
2023/02/02 09:16:27;;;;;;;;;3.00;2.00;;;;;10.43;63.00;102695.78;5067574;27;45459;-69
2023/02/02 09:18:54;;;;;;;;;2.00;2.00;;;;;10.43;62.63;102695.78;5072796;27;45581;-69
2023/02/02 09:21:20;;;;;;;;;6.50;3.00;;;;;10.43;62.81;102696.66;5062064;27;45410;-69
2023/02/02 09:23:46;;;;;;;;;5.00;3.25;;;;;10.42;62.44;102700.22;5067973;27;45587;-69
2023/02/02 09:26:13;;;;;;;;;5.50;2.25;;;;;10.43;62.63;102703.78;5072405;27;45381;-69
2023/02/02 09:28:40;;;;;;;;;2.00;2.00;;;;;10.43;62.54;102709.13;5077402;27;46383;-69
2023/02/02 09:31:07;;;;;;;;;3.00;3.00;;;;;10.47;62.70;102719.78;5067669;27;45536;-69
2023/02/02 09:33:32;;;;;;;;;2.00;2.00;;;;;10.48;63.20;102718.03;5064793;28;45539;-69
2023/02/02 09:36:15;;;;;;;;;2.50;2.00;;;;;10.49;62.82;102733.13;5069243;27;45784;-69
2023/02/02 09:38:42;;;;;;;;;1.00;0.00;;;;;10.54;62.72;102732.28;5075400;28;46073;-70
2023/02/02 09:41:32;;;;;;;;;3.25;2.75;;;;;10.56;62.84;102743.84;5077632;27;45548;-69
2023/02/02 09:44:35;;;;;;;;;2.50;2.50;;;;;10.59;62.33;102750.06;5069344;27;45508;-69
2023/02/02 09:47:19;;;;;;;;;3.50;3.00;;;;;10.60;63.05;102754.53;5068880;27;45560;-69
2023/02/02 09:50:13;;;;;;;;;3.00;2.00;;;;;10.54;62.48;102740.28;5063334;27;45517;-69
2023/02/02 09:52:43;;;;;;;;;2.50;2.25;;;;;10.64;62.69;102754.53;5064233;27;46132;-69
2023/02/02 09:55:08;;;;;;;;;4.00;2.00;;;;;10.68;62.42;102758.06;5077271;27;45474;-69
2023/02/02 09:57:44;;;;;;;;;2.00;2.00;;;;;10.67;62.72;102756.28;5074470;27;45605;-69
2023/02/02 10:00:19;;;;;;;;;6.25;4.00;;;;;10.72;62.48;102758.06;5070989;27;45874;-69
2023/02/02 10:02:45;;;;;;;;;4.00;4.00;;;;;10.69;62.27;102746.47;5069515;27;45434;-69
2023/02/02 10:05:18;;;;;;;;;0.75;0.75;;;;;10.73;62.47;102759.84;5075439;27;45669;-69
2023/02/02 10:07:48;;;;;;;;;3.75;2.00;;;;;10.73;62.12;102762.50;5072809;27;46597;-69
2023/02/02 10:10:25;;;;;;;;;2.75;2.75;;;;;10.71;62.51;102752.75;5059812;27;46921;-69
2023/02/02 10:12:58;;;;;;;;;2.25;2.00;;;;;10.75;62.24;102766.06;5072686;27;45337;-69
2023/02/02 10:15:38;;;;;;;;;8.25;3.00;;;;;10.78;62.34;102766.97;5068597;27;45706;-69
2023/02/02 10:18:39;;;;;;;;;2.00;2.00;;;;;10.77;62.19;102754.50;5062471;27;45508;-69
2023/02/02 10:21:21;;;;;;;;;6.25;2.75;;;;;10.80;62.29;102760.72;5066577;27;47072;-70
2023/02/02 10:23:46;;;;;;;;;3.00;2.00;;;;;10.81;62.42;102754.50;5070138;28;45933;-70
2023/02/02 10:26:14;;;;;;;;;4.00;2.00;;;;;10.83;62.01;102758.06;5081790;27;45636;-70
2023/02/02 10:28:50;;;;;;;;;3.00;3.00;;;;;10.82;62.57;102748.25;5078490;27;45552;-70
2023/02/02 10:31:25;;;;;;;;;3.00;3.00;;;;;10.86;62.30;102762.50;5070763;27;45815;-70
2023/02/02 10:34:03;;;;;;;;;4.00;3.25;;;;;10.87;62.29;102765.16;5063128;27;48305;-69
2023/02/02 10:36:40;;;;;;;;;2.00;1.25;;;;;10.89;62.13;102768.75;5075602;27;45500;-70
2023/02/02 10:39:29;;;;;;;;;3.75;2.00;;;;;10.91;61.79;102771.41;5065885;28;45651;-68
2023/02/02 10:42:19;;;;;;;;;3.25;3.00;;;;;10.93;62.32;102777.66;5077247;27;45425;-68
2023/02/02 10:44:59;;;;;;;;;3.75;3.00;;;;;10.94;62.27;102776.72;5075160;27;45476;-66
2023/02/02 10:47:28;;;;;;;;;5.25;3.00;;;;;10.96;62.22;102774.06;5061702;27;45596;-67
2023/02/02 10:50:12;;;;;;;;;3.00;2.00;;;;;10.97;61.97;102776.72;5070499;27;45651;-66
2023/02/02 10:52:43;;;;;;;;;2.50;2.00;;;;;11.00;61.98;102773.19;5068106;27;46450;-70
2023/02/02 10:55:08;;;;;;;;;3.00;3.00;;;;;11.02;61.93;102777.63;5067135;28;45335;-71
2023/02/02 10:57:52;;;;;;;;;7.33;4.00;;;;;11.05;61.71;102785.63;5074156;27;45451;-70
2023/02/02 11:00:26;;;;;;;;;3.75;2.50;;;;;11.08;61.98;102779.41;5062971;27;45493;-68
2023/02/02 11:02:52;;;;;;;;;2.25;2.00;;;;;11.08;61.53;102780.28;5077714;27;45417;-71
2023/02/02 11:08:32;;;;;;;;;1.50;0.00;;;;;11.12;61.35;102776.69;5071040;27;45485;-68
2023/02/02 11:11:09;;;;;;;;;1.75;1.75;;;;;11.15;61.59;102781.16;5072358;28;45556;-69
2023/02/02 11:13:46;;;;;;;;;3.00;3.00;;;;;11.15;61.75;102775.81;5064441;27;46105;-69
2023/02/02 11:16:14;;;;;;;;;3.50;1.75;;;;;11.21;61.69;102767.78;5068842;27;45933;-68
2023/02/02 11:18:40;;;;;;;;;1.50;1.50;;;;;11.21;61.82;102772.22;5077790;28;45482;-68
2023/02/02 11:21:20;;;;;;;;;4.75;3.00;;;;;11.21;61.76;102762.44;5075028;27;45345;-68
2023/02/02 11:23:54;;;;;;;;;7.00;4.25;;;;;11.27;61.25;102759.72;5063577;27;46234;-70
2023/02/02 11:26:20;;;;;;;;;1.00;1.00;;;;;11.30;61.31;102757.06;5070117;27;45355;-70
2023/02/02 11:28:48;;;;;;;;;2.00;1.00;;;;;11.30;61.06;102764.19;5073945;27;45775;-68
2023/02/02 11:31:35;;;;;;;;;1.00;1.00;;;;;11.32;60.80;102755.25;5069025;27;45815;-70
2023/02/02 11:34:17;;;;;;;;;4.50;1.00;;;;;11.35;60.92;102754.38;5077256;27;45426;-70
2023/02/02 11:36:59;;;;;;;;;1.00;1.00;;;;;11.37;60.50;102749.03;5071995;27;45554;-70
2023/02/02 11:39:25;;;;;;;;;2.50;2.00;;;;;11.37;60.29;102744.56;5077027;27;45460;-71
2023/02/02 11:42:11;;;;;;;;;2.00;2.00;;;;;11.40;60.51;102747.22;5066177;27;45535;-70
2023/02/02 11:44:38;;;;;;;;;1.50;1.00;;;;;11.41;60.42;102743.66;5073594;27;47125;-70
2023/02/02 11:47:04;;;;;;;;;1.00;1.00;;;;;11.44;60.29;102745.41;5067182;27;45487;-71